Sherman, TX

12:06 PM CDT on August 02, 2015 (GMT -0500)
Forest Creek | | Change Station
CLOSE
Current Station
Personal Weather Station
Location: Sherman, TX
Elevation: 801 ft
Nearby Weather Stations

Elev 801 ft 33.68 °N, 96.62 °W | Updated 34 seconds ago

Partly Cloudy
Partly Cloudy
94.3 °F
Feels Like 96 °F
N
1.6
Wind Variable Wind from SE
Gusts 3.1 mph

Today
High -- | Low -- °F
--% Chance of Precip.
Yesterday
High -- | Low -- °F
Precip. -- in
6:39 AM 8:25 PM
Waning Gibbous, 93% visible
Pressure 30.00 in
Visibility 10.0 miles
Clouds Clear
Heat Index 96 °F
Dew Point 64 °F
Humidity 37%
Rainfall 0.00 in
Snow Depth Not available.
UV 10 out of 12
Pollen 4.60 out of 12
Air Quality Not available.
Flu Activity Not available.
METAR KGYI 021655Z AUTO 17012G15KT 10SM CLR 34/16 A3000 RMK AO2 T03350164

More Conditions Fewer Conditions

Pressure 30.00 in
Visibility 10.0 miles
Clouds Clear
Heat Index 96 °F
Dew Point 64 °F
Humidity 37%
Rainfall 0.00 in
Snow Depth Not available.
UV 10 out of 12
Pollen 4.60 out of 12
Air Quality Not available.
Flu Activity Not available.
METAR KGYI 021655Z AUTO 17012G15KT 10SM CLR 34/16 A3000 RMK AO2 T03350164

More Conditions Fewer Conditions

Nowcast | as of 12:04 PM CDT on August 2, 2015

Scattered light rain or sprinkles are occurring northwest of a line from Mineral Wells to Decatur to Sherman. Only a trace of rainfall will occur with this activity as it moves to the southeast. Otherwise...warm conditions will prevail with temperatures in the upper 80s and 90s this afternoon. Skies will be partly to mostly cloudy.

×

10-Day Weather Forecast

×

Almanac

Astronomy

Aug. 02, 2015 Rise Set
Actual Time
Civil Twilight
Nautical Twilight
Astronomical Twilight
Moon
Length of Visible Light
Length of Day
Tomorrow will be .
, % of the Moon is Illuminated

Today's Extremes

State Highs State Lows

Community

WunderPhotos

Upload Photos

1,843,317 photos uploaded!

WunderBlogs® & News

Nearby

Air Quality

  Air Quality AQ Index Pollutant
Not available.

Snow Depth

Station Depth Elevation

Earthquake Activity

City Distance Mag. Time & Date
Minimum magnitude displayed is 2.5.

Coastal Water Temperatures

Place Temperature

Stations

Nearby Weather Stations

Station Location Temp. Windchill Dew Point Humidity Wind Precip. Elev Updated Type